Weather at Brisbane International Airport

Public forecast

Using degrees Celsius for public forecast. Weather courtesy of forecast.io.

Current aviation weather report (METAR) for Brisbane International Airport

Report is more than 6 hours old.

2022/11/14 15:30 (retrieved 2 years ago)

YBBN 141530Z 27006KT CAVOK 21/19 Q1006

Aviation forecast (TAF) for Brisbane International Airport

Forecast is more than 12 hours old.

2023/02/22 18:36 (retrieved 1 year ago)

TAF YBBN 221712Z 2218/2400 19007KT 9999 -SHRA SCT018 BKN025 BKN045 FM222300 15014KT 9999 -SHRA SCT025 SCT050 FM230000 12014KT 9999 -SHRA SCT030 FM230900 17008KT 9999 NSW SCT025 FM231500 20006KT 9999 -SHRA SCT015 BKN025 INTER 2218/2223 3000 SHRA BKN012 INTER 2318/2400 3000 SHRA BKN012